sensor_id;sensor_type;location;lat;lon;timestamp;P1;durP1;ratioP1;P2;durP2;ratioP2
29504;SDS011;16452;54.174;12.092;2022-09-09T00:00:40;26.92;;;16.08;;
29504;SDS011;16452;54.174;12.092;2022-09-09T00:03:18;27.23;;;16.25;;
29504;SDS011;16452;54.174;12.092;2022-09-09T00:06:08;24.08;;;15.82;;
29504;SDS011;16452;54.174;12.092;2022-09-09T00:11:43;22.10;;;15.77;;
29504;SDS011;16452;54.174;12.092;2022-09-09T00:17:04;20.13;;;15.10;;
29504;SDS011;16452;54.174;12.092;2022-09-09T00:19:41;19.55;;;15.63;;
29504;SDS011;16452;54.174;12.092;2022-09-09T00:22:27;19.92;;;16.08;;
29504;SDS011;16452;54.174;12.092;2022-09-09T00:25:02;20.10;;;15.05;;
29504;SDS011;16452;54.174;12.092;2022-09-09T00:27:44;20.50;;;16.83;;
29504;SDS011;16452;54.174;12.092;2022-09-09T00:30:19;22.85;;;16.08;;
29504;SDS011;16452;54.174;12.092;2022-09-09T00:33:08;20.92;;;17.95;;
29504;SDS011;16452;54.174;12.092;2022-09-09T00:35:42;20.48;;;17.33;;
29504;SDS011;16452;54.174;12.092;2022-09-09T00:38:14;19.35;;;17.02;;
29504;SDS011;16452;54.174;12.092;2022-09-09T00:40:50;21.27;;;17.92;;
29504;SDS011;16452;54.174;12.092;2022-09-09T00:43:33;20.85;;;18.25;;
29504;SDS011;16452;54.174;12.092;2022-09-09T00:57:34;26.20;;;20.27;;
29504;SDS011;16452;54.174;12.092;2022-09-09T01:00:21;23.92;;;21.05;;
29504;SDS011;16452;54.174;12.092;2022-09-09T01:03:10;26.02;;;21.48;;
29504;SDS011;16452;54.174;12.092;2022-09-09T01:06:13;23.25;;;19.98;;
29504;SDS011;16452;54.174;12.092;2022-09-09T01:09:07;25.80;;;20.35;;
29504;SDS011;16452;54.174;12.092;2022-09-09T01:16:57;25.90;;;21.13;;
29504;SDS011;16452;54.174;12.092;2022-09-09T01:28:58;32.25;;;22.27;;
29504;SDS011;16452;54.174;12.092;2022-09-09T01:33:57;35.60;;;23.60;;
29504;SDS011;16452;54.174;12.092;2022-09-09T01:36:29;31.73;;;22.13;;
29504;SDS011;16452;54.174;12.092;2022-09-09T01:39:20;30.02;;;22.52;;
29504;SDS011;16452;54.174;12.092;2022-09-09T01:41:46;30.30;;;21.20;;
29504;SDS011;16452;54.174;12.092;2022-09-09T01:44:12;28.23;;;20.85;;
29504;SDS011;16452;54.174;12.092;2022-09-09T01:46:38;28.50;;;20.58;;
29504;SDS011;16452;54.174;12.092;2022-09-09T01:49:05;27.70;;;20.08;;
29504;SDS011;16452;54.174;12.092;2022-09-09T01:51:33;26.85;;;19.02;;
29504;SDS011;16452;54.174;12.092;2022-09-09T01:54:01;24.27;;;17.35;;
29504;SDS011;16452;54.174;12.092;2022-09-09T01:56:32;22.52;;;16.65;;
29504;SDS011;16452;54.174;12.092;2022-09-09T01:59:31;22.88;;;16.90;;
29504;SDS011;16452;54.174;12.092;2022-09-09T02:02:26;21.95;;;16.67;;
29504;SDS011;16452;54.174;12.092;2022-09-09T02:05:16;19.65;;;15.05;;
29504;SDS011;16452;54.174;12.092;2022-09-09T02:07:49;20.70;;;15.90;;
29504;SDS011;16452;54.174;12.092;2022-09-09T02:10:20;22.00;;;16.15;;
29504;SDS011;16452;54.174;12.092;2022-09-09T02:13:21;19.70;;;15.52;;
29504;SDS011;16452;54.174;12.092;2022-09-09T02:21:23;22.20;;;16.92;;
29504;SDS011;16452;54.174;12.092;2022-09-09T02:23:53;21.15;;;15.38;;
29504;SDS011;16452;54.174;12.092;2022-09-09T02:26:21;20.65;;;16.05;;
29504;SDS011;16452;54.174;12.092;2022-09-09T02:28:49;18.60;;;14.93;;
29504;SDS011;16452;54.174;12.092;2022-09-09T02:31:17;22.40;;;16.58;;
29504;SDS011;16452;54.174;12.092;2022-09-09T02:33:48;20.13;;;15.68;;
29504;SDS011;16452;54.174;12.092;2022-09-09T02:36:23;20.08;;;15.55;;
29504;SDS011;16452;54.174;12.092;2022-09-09T02:38:51;21.35;;;15.80;;
29504;SDS011;16452;54.174;12.092;2022-09-09T02:41:29;19.13;;;15.18;;
29504;SDS011;16452;54.174;12.092;2022-09-09T02:44:02;19.67;;;15.05;;
29504;SDS011;16452;54.174;12.092;2022-09-09T02:55:46;15.15;;;13.38;;
29504;SDS011;16452;54.174;12.092;2022-09-09T02:58:28;19.15;;;14.82;;
29504;SDS011;16452;54.174;12.092;2022-09-09T03:00:54;18.65;;;14.05;;
29504;SDS011;16452;54.174;12.092;2022-09-09T03:03:22;18.35;;;14.75;;
29504;SDS011;16452;54.174;12.092;2022-09-09T03:05:49;17.38;;;14.40;;
29504;SDS011;16452;54.174;12.092;2022-09-09T03:08:15;16.23;;;14.05;;
29504;SDS011;16452;54.174;12.092;2022-09-09T03:10:42;21.23;;;15.40;;
29504;SDS011;16452;54.174;12.092;2022-09-09T03:13:07;18.45;;;14.45;;
29504;SDS011;16452;54.174;12.092;2022-09-09T03:15:33;19.08;;;15.05;;
29504;SDS011;16452;54.174;12.092;2022-09-09T03:18:00;21.00;;;15.55;;
29504;SDS011;16452;54.174;12.092;2022-09-09T03:20:27;18.58;;;15.15;;
29504;SDS011;16452;54.174;12.092;2022-09-09T03:22:54;19.63;;;15.50;;
29504;SDS011;16452;54.174;12.092;2022-09-09T03:25:21;19.92;;;15.75;;
29504;SDS011;16452;54.174;12.092;2022-09-09T03:27:51;18.45;;;14.82;;
29504;SDS011;16452;54.174;12.092;2022-09-09T03:30:23;18.13;;;15.23;;
29504;SDS011;16452;54.174;12.092;2022-09-09T03:32:51;20.85;;;16.00;;
29504;SDS011;16452;54.174;12.092;2022-09-09T03:35:22;18.58;;;15.48;;
29504;SDS011;16452;54.174;12.092;2022-09-09T03:37:48;20.90;;;16.60;;
29504;SDS011;16452;54.174;12.092;2022-09-09T03:40:14;20.20;;;16.35;;
29504;SDS011;16452;54.174;12.092;2022-09-09T03:42:40;18.83;;;15.98;;
29504;SDS011;16452;54.174;12.092;2022-09-09T03:45:07;18.70;;;15.50;;
29504;SDS011;16452;54.174;12.092;2022-09-09T03:47:35;20.65;;;17.58;;
29504;SDS011;16452;54.174;12.092;2022-09-09T03:50:02;20.48;;;16.63;;
29504;SDS011;16452;54.174;12.092;2022-09-09T03:52:31;22.02;;;17.95;;
29504;SDS011;16452;54.174;12.092;2022-09-09T03:54:58;21.27;;;16.95;;
29504;SDS011;16452;54.174;12.092;2022-09-09T03:57:24;22.88;;;17.55;;
29504;SDS011;16452;54.174;12.092;2022-09-09T03:59:50;26.30;;;18.10;;
29504;SDS011;16452;54.174;12.092;2022-09-09T04:02:16;22.38;;;17.67;;
29504;SDS011;16452;54.174;12.092;2022-09-09T04:04:41;22.52;;;18.23;;
29504;SDS011;16452;54.174;12.092;2022-09-09T04:07:07;23.70;;;18.42;;
29504;SDS011;16452;54.174;12.092;2022-09-09T04:09:33;24.83;;;19.17;;
29504;SDS011;16452;54.174;12.092;2022-09-09T04:11:59;23.60;;;19.48;;
29504;SDS011;16452;54.174;12.092;2022-09-09T04:14:25;26.73;;;19.48;;
29504;SDS011;16452;54.174;12.092;2022-09-09T04:16:53;25.13;;;19.15;;
29504;SDS011;16452;54.174;12.092;2022-09-09T04:19:22;25.00;;;20.40;;
29504;SDS011;16452;54.174;12.092;2022-09-09T04:21:48;25.38;;;19.85;;
29504;SDS011;16452;54.174;12.092;2022-09-09T04:24:15;26.17;;;20.42;;
29504;SDS011;16452;54.174;12.092;2022-09-09T04:26:45;25.83;;;19.33;;
29504;SDS011;16452;54.174;12.092;2022-09-09T04:29:12;25.42;;;20.00;;
29504;SDS011;16452;54.174;12.092;2022-09-09T04:31:37;26.80;;;19.73;;
29504;SDS011;16452;54.174;12.092;2022-09-09T04:34:09;24.85;;;19.15;;
29504;SDS011;16452;54.174;12.092;2022-09-09T04:36:38;26.77;;;19.92;;
29504;SDS011;16452;54.174;12.092;2022-09-09T04:39:05;25.27;;;19.67;;
29504;SDS011;16452;54.174;12.092;2022-09-09T04:41:31;25.73;;;19.60;;
29504;SDS011;16452;54.174;12.092;2022-09-09T04:43:57;26.42;;;19.55;;
29504;SDS011;16452;54.174;12.092;2022-09-09T04:46:24;26.55;;;19.42;;
29504;SDS011;16452;54.174;12.092;2022-09-09T04:48:50;29.27;;;19.98;;
29504;SDS011;16452;54.174;12.092;2022-09-09T04:51:17;25.17;;;19.80;;
29504;SDS011;16452;54.174;12.092;2022-09-09T04:53:43;28.48;;;19.92;;
29504;SDS011;16452;54.174;12.092;2022-09-09T04:56:13;29.17;;;21.25;;
29504;SDS011;16452;54.174;12.092;2022-09-09T04:58:41;29.73;;;21.10;;
29504;SDS011;16452;54.174;12.092;2022-09-09T05:03:45;27.25;;;20.20;;
29504;SDS011;16452;54.174;12.092;2022-09-09T05:06:12;29.70;;;21.13;;
29504;SDS011;16452;54.174;12.092;2022-09-09T05:08:41;29.83;;;21.83;;
29504;SDS011;16452;54.174;12.092;2022-09-09T05:13:44;28.20;;;21.13;;
29504;SDS011;16452;54.174;12.092;2022-09-09T05:16:11;33.47;;;21.40;;
29504;SDS011;16452;54.174;12.092;2022-09-09T05:18:38;33.33;;;22.38;;
29504;SDS011;16452;54.174;12.092;2022-09-09T05:21:06;28.58;;;20.40;;
29504;SDS011;16452;54.174;12.092;2022-09-09T05:23:32;37.28;;;21.55;;
29504;SDS011;16452;54.174;12.092;2022-09-09T05:26:02;29.50;;;21.20;;
29504;SDS011;16452;54.174;12.092;2022-09-09T05:28:29;33.22;;;22.50;;
29504;SDS011;16452;54.174;12.092;2022-09-09T05:31:14;28.27;;;21.50;;
29504;SDS011;16452;54.174;12.092;2022-09-09T05:33:43;32.00;;;21.23;;
29504;SDS011;16452;54.174;12.092;2022-09-09T05:36:14;37.60;;;22.35;;
29504;SDS011;16452;54.174;12.092;2022-09-09T05:38:42;31.85;;;19.77;;
29504;SDS011;16452;54.174;12.092;2022-09-09T05:41:09;30.48;;;20.10;;
29504;SDS011;16452;54.174;12.092;2022-09-09T05:43:36;33.63;;;21.35;;
29504;SDS011;16452;54.174;12.092;2022-09-09T05:46:04;29.45;;;19.75;;
29504;SDS011;16452;54.174;12.092;2022-09-09T05:48:36;32.60;;;20.25;;
29504;SDS011;16452;54.174;12.092;2022-09-09T05:51:06;32.08;;;20.42;;
29504;SDS011;16452;54.174;12.092;2022-09-09T05:53:37;31.88;;;20.40;;
29504;SDS011;16452;54.174;12.092;2022-09-09T05:56:04;37.03;;;21.23;;
29504;SDS011;16452;54.174;12.092;2022-09-09T05:58:35;33.42;;;20.33;;
29504;SDS011;16452;54.174;12.092;2022-09-09T06:01:08;32.28;;;20.58;;
29504;SDS011;16452;54.174;12.092;2022-09-09T06:03:38;34.28;;;21.13;;
29504;SDS011;16452;54.174;12.092;2022-09-09T06:06:10;35.47;;;22.92;;
29504;SDS011;16452;54.174;12.092;2022-09-09T06:08:43;34.60;;;22.52;;
29504;SDS011;16452;54.174;12.092;2022-09-09T06:11:20;34.35;;;22.85;;
29504;SDS011;16452;54.174;12.092;2022-09-09T06:13:52;35.15;;;21.95;;
29504;SDS011;16452;54.174;12.092;2022-09-09T06:16:20;34.05;;;22.35;;
29504;SDS011;16452;54.174;12.092;2022-09-09T06:18:49;36.40;;;23.33;;
29504;SDS011;16452;54.174;12.092;2022-09-09T06:21:16;31.20;;;22.40;;
29504;SDS011;16452;54.174;12.092;2022-09-09T06:23:45;36.25;;;23.90;;
29504;SDS011;16452;54.174;12.092;2022-09-09T06:26:13;33.90;;;24.02;;
29504;SDS011;16452;54.174;12.092;2022-09-09T06:28:43;36.20;;;23.02;;
29504;SDS011;16452;54.174;12.092;2022-09-09T06:31:11;31.42;;;21.88;;
29504;SDS011;16452;54.174;12.092;2022-09-09T06:33:39;33.30;;;22.95;;
29504;SDS011;16452;54.174;12.092;2022-09-09T06:36:10;35.10;;;23.30;;
29504;SDS011;16452;54.174;12.092;2022-09-09T06:38:44;33.80;;;22.73;;
29504;SDS011;16452;54.174;12.092;2022-09-09T06:41:11;33.92;;;23.63;;
29504;SDS011;16452;54.174;12.092;2022-09-09T06:43:39;30.55;;;21.98;;
29504;SDS011;16452;54.174;12.092;2022-09-09T06:46:06;34.15;;;22.48;;
29504;SDS011;16452;54.174;12.092;2022-09-09T06:48:39;29.38;;;21.38;;
29504;SDS011;16452;54.174;12.092;2022-09-09T06:51:08;32.08;;;21.23;;
29504;SDS011;16452;54.174;12.092;2022-09-09T06:53:43;29.45;;;21.02;;
29504;SDS011;16452;54.174;12.092;2022-09-09T06:58:39;31.80;;;21.73;;
29504;SDS011;16452;54.174;12.092;2022-09-09T07:01:12;32.08;;;21.35;;
29504;SDS011;16452;54.174;12.092;2022-09-09T07:03:41;29.88;;;21.33;;
29504;SDS011;16452;54.174;12.092;2022-09-09T07:06:14;29.95;;;20.75;;
29504;SDS011;16452;54.174;12.092;2022-09-09T07:08:47;31.42;;;21.80;;
29504;SDS011;16452;54.174;12.092;2022-09-09T07:11:21;32.70;;;21.70;;
29504;SDS011;16452;54.174;12.092;2022-09-09T07:13:52;28.60;;;20.48;;
29504;SDS011;16452;54.174;12.092;2022-09-09T07:16:19;29.45;;;20.20;;
29504;SDS011;16452;54.174;12.092;2022-09-09T07:18:48;30.58;;;20.60;;
29504;SDS011;16452;54.174;12.092;2022-09-09T07:21:15;28.15;;;21.10;;
29504;SDS011;16452;54.174;12.092;2022-09-09T07:23:41;31.08;;;21.50;;
29504;SDS011;16452;54.174;12.092;2022-09-09T07:26:12;29.08;;;20.92;;
29504;SDS011;16452;54.174;12.092;2022-09-09T07:28:41;27.45;;;20.88;;
29504;SDS011;16452;54.174;12.092;2022-09-09T07:31:13;28.42;;;20.42;;
29504;SDS011;16452;54.174;12.092;2022-09-09T07:33:44;34.15;;;21.25;;
29504;SDS011;16452;54.174;12.092;2022-09-09T07:36:20;29.33;;;21.42;;
29504;SDS011;16452;54.174;12.092;2022-09-09T07:38:52;31.90;;;21.75;;
29504;SDS011;16452;54.174;12.092;2022-09-09T07:43:59;30.65;;;21.30;;
29504;SDS011;16452;54.174;12.092;2022-09-09T07:46:30;31.70;;;22.40;;
29504;SDS011;16452;54.174;12.092;2022-09-09T07:48:56;33.85;;;22.92;;
29504;SDS011;16452;54.174;12.092;2022-09-09T07:51:28;37.40;;;22.15;;
29504;SDS011;16452;54.174;12.092;2022-09-09T07:53:59;33.88;;;23.27;;
29504;SDS011;16452;54.174;12.092;2022-09-09T07:56:31;32.55;;;23.88;;
29504;SDS011;16452;54.174;12.092;2022-09-09T07:58:57;31.00;;;22.25;;
29504;SDS011;16452;54.174;12.092;2022-09-09T08:04:00;33.35;;;23.63;;
29504;SDS011;16452;54.174;12.092;2022-09-09T08:06:34;30.80;;;24.40;;
29504;SDS011;16452;54.174;12.092;2022-09-09T08:09:06;33.75;;;24.77;;
29504;SDS011;16452;54.174;12.092;2022-09-09T08:11:33;31.00;;;23.58;;
29504;SDS011;16452;54.174;12.092;2022-09-09T08:14:01;35.33;;;24.50;;
29504;SDS011;16452;54.174;12.092;2022-09-09T08:16:29;30.90;;;23.80;;
29504;SDS011;16452;54.174;12.092;2022-09-09T08:18:59;33.20;;;24.38;;
29504;SDS011;16452;54.174;12.092;2022-09-09T08:21:26;35.90;;;24.70;;
29504;SDS011;16452;54.174;12.092;2022-09-09T08:23:57;32.03;;;24.15;;
29504;SDS011;16452;54.174;12.092;2022-09-09T08:26:26;33.45;;;24.10;;
29504;SDS011;16452;54.174;12.092;2022-09-09T08:29:02;29.75;;;23.02;;
29504;SDS011;16452;54.174;12.092;2022-09-09T08:31:31;29.10;;;22.00;;
29504;SDS011;16452;54.174;12.092;2022-09-09T08:34:00;30.80;;;23.45;;
29504;SDS011;16452;54.174;12.092;2022-09-09T08:36:29;26.70;;;22.23;;
29504;SDS011;16452;54.174;12.092;2022-09-09T08:39:01;27.40;;;21.95;;
29504;SDS011;16452;54.174;12.092;2022-09-09T08:46:59;26.85;;;22.25;;
29504;SDS011;16452;54.174;12.092;2022-09-09T09:13:30;21.75;;;17.20;;
29504;SDS011;16452;54.174;12.092;2022-09-09T09:19:16;25.05;;;18.58;;
29504;SDS011;16452;54.174;12.092;2022-09-09T09:21:44;25.50;;;20.50;;
29504;SDS011;16452;54.174;12.092;2022-09-09T09:24:39;25.17;;;19.17;;
29504;SDS011;16452;54.174;12.092;2022-09-09T09:30:22;30.85;;;20.85;;
29504;SDS011;16452;54.174;12.092;2022-09-09T09:36:00;26.83;;;18.95;;
29504;SDS011;16452;54.174;12.092;2022-09-09T09:38:28;23.83;;;17.88;;
29504;SDS011;16452;54.174;12.092;2022-09-09T09:40:55;22.80;;;17.95;;
29504;SDS011;16452;54.174;12.092;2022-09-09T09:43:33;23.33;;;18.00;;
29504;SDS011;16452;54.174;12.092;2022-09-09T09:46:04;21.85;;;17.08;;
29504;SDS011;16452;54.174;12.092;2022-09-09T09:48:44;22.90;;;16.90;;
29504;SDS011;16452;54.174;12.092;2022-09-09T09:51:12;19.20;;;16.38;;
29504;SDS011;16452;54.174;12.092;2022-09-09T09:53:42;20.98;;;16.50;;
29504;SDS011;16452;54.174;12.092;2022-09-09T09:56:09;22.52;;;16.30;;
29504;SDS011;16452;54.174;12.092;2022-09-09T09:58:49;18.48;;;16.20;;
29504;SDS011;16452;54.174;12.092;2022-09-09T10:01:23;22.63;;;15.82;;
29504;SDS011;16452;54.174;12.092;2022-09-09T10:03:54;22.02;;;15.00;;
29504;SDS011;16452;54.174;12.092;2022-09-09T10:06:34;16.65;;;13.77;;
29504;SDS011;16452;54.174;12.092;2022-09-09T10:09:03;19.35;;;13.82;;
29504;SDS011;16452;54.174;12.092;2022-09-09T10:12:05;16.60;;;13.77;;
29504;SDS011;16452;54.174;12.092;2022-09-09T10:15:03;16.60;;;13.23;;
29504;SDS011;16452;54.174;12.092;2022-09-09T10:18:12;18.10;;;13.40;;
29504;SDS011;16452;54.174;12.092;2022-09-09T10:32:48;16.70;;;11.20;;
29504;SDS011;16452;54.174;12.092;2022-09-09T10:38:32;15.07;;;9.90;;
29504;SDS011;16452;54.174;12.092;2022-09-09T10:44:33;13.70;;;10.68;;
29504;SDS011;16452;54.174;12.092;2022-09-09T10:53:02;10.55;;;7.70;;
29504;SDS011;16452;54.174;12.092;2022-09-09T10:55:45;9.68;;;7.32;;
29504;SDS011;16452;54.174;12.092;2022-09-09T11:01:48;11.55;;;7.85;;
29504;SDS011;16452;54.174;12.092;2022-09-09T11:04:48;9.90;;;7.28;;
29504;SDS011;16452;54.174;12.092;2022-09-09T11:07:27;10.35;;;8.40;;
29504;SDS011;16452;54.174;12.092;2022-09-09T11:10:06;11.00;;;8.20;;
29504;SDS011;16452;54.174;12.092;2022-09-09T11:12:45;11.18;;;8.60;;
29504;SDS011;16452;54.174;12.092;2022-09-09T11:15:17;12.30;;;7.53;;
29504;SDS011;16452;54.174;12.092;2022-09-09T11:17:56;12.15;;;8.00;;
29504;SDS011;16452;54.174;12.092;2022-09-09T11:20:26;13.73;;;7.80;;
29504;SDS011;16452;54.174;12.092;2022-09-09T11:22:55;12.15;;;8.10;;
29504;SDS011;16452;54.174;12.092;2022-09-09T11:40:08;9.82;;;6.35;;
29504;SDS011;16452;54.174;12.092;2022-09-09T11:42:48;7.70;;;6.00;;
29504;SDS011;16452;54.174;12.092;2022-09-09T11:45:26;9.20;;;5.75;;
29504;SDS011;16452;54.174;12.092;2022-09-09T11:47:57;11.20;;;4.85;;
29504;SDS011;16452;54.174;12.092;2022-09-09T11:50:30;9.43;;;4.82;;
29504;SDS011;16452;54.174;12.092;2022-09-09T11:53:06;9.15;;;5.50;;
29504;SDS011;16452;54.174;12.092;2022-09-09T11:59:03;9.77;;;5.00;;
29504;SDS011;16452;54.174;12.092;2022-09-09T12:06:51;6.25;;;5.65;;
29504;SDS011;16452;54.174;12.092;2022-09-09T12:12:28;9.82;;;5.63;;
29504;SDS011;16452;54.174;12.092;2022-09-09T12:17:52;8.32;;;5.88;;
29504;SDS011;16452;54.174;12.092;2022-09-09T12:26:23;6.90;;;4.97;;
29504;SDS011;16452;54.174;12.092;2022-09-09T12:29:36;8.65;;;5.25;;
29504;SDS011;16452;54.174;12.092;2022-09-09T12:32:22;7.35;;;5.00;;
29504;SDS011;16452;54.174;12.092;2022-09-09T12:34:59;7.90;;;4.90;;
29504;SDS011;16452;54.174;12.092;2022-09-09T12:40:15;10.38;;;4.70;;
29504;SDS011;16452;54.174;12.092;2022-09-09T12:42:48;6.25;;;4.20;;
29504;SDS011;16452;54.174;12.092;2022-09-09T12:45:20;7.40;;;3.78;;
29504;SDS011;16452;54.174;12.092;2022-09-09T12:48:03;7.05;;;3.63;;
29504;SDS011;16452;54.174;12.092;2022-09-09T12:50:37;6.00;;;3.90;;
29504;SDS011;16452;54.174;12.092;2022-09-09T12:53:18;5.90;;;3.22;;
29504;SDS011;16452;54.174;12.092;2022-09-09T12:56:09;6.03;;;3.45;;
29504;SDS011;16452;54.174;12.092;2022-09-09T12:58:50;5.70;;;3.10;;
29504;SDS011;16452;54.174;12.092;2022-09-09T13:01:20;6.35;;;2.78;;
29504;SDS011;16452;54.174;12.092;2022-09-09T13:03:58;5.10;;;2.88;;
29504;SDS011;16452;54.174;12.092;2022-09-09T13:06:26;4.35;;;2.75;;
29504;SDS011;16452;54.174;12.092;2022-09-09T13:08:57;10.30;;;2.90;;
29504;SDS011;16452;54.174;12.092;2022-09-09T13:11:30;4.70;;;2.45;;
29504;SDS011;16452;54.174;12.092;2022-09-09T13:14:12;5.03;;;2.10;;
29504;SDS011;16452;54.174;12.092;2022-09-09T13:16:54;5.82;;;2.58;;
29504;SDS011;16452;54.174;12.092;2022-09-09T13:19:23;8.70;;;2.67;;
29504;SDS011;16452;54.174;12.092;2022-09-09T13:21:52;6.13;;;2.40;;
29504;SDS011;16452;54.174;12.092;2022-09-09T13:24:32;5.30;;;2.80;;
29504;SDS011;16452;54.174;12.092;2022-09-09T13:29:27;4.57;;;2.83;;
29504;SDS011;16452;54.174;12.092;2022-09-09T13:32:03;4.20;;;2.40;;
29504;SDS011;16452;54.174;12.092;2022-09-09T13:34:52;4.25;;;2.78;;
29504;SDS011;16452;54.174;12.092;2022-09-09T13:37:35;6.43;;;2.72;;
29504;SDS011;16452;54.174;12.092;2022-09-09T13:40:04;4.53;;;2.55;;
29504;SDS011;16452;54.174;12.092;2022-09-09T13:42:39;5.47;;;2.47;;
29504;SDS011;16452;54.174;12.092;2022-09-09T13:45:14;7.15;;;2.83;;
29504;SDS011;16452;54.174;12.092;2022-09-09T13:47:45;7.90;;;2.75;;
29504;SDS011;16452;54.174;12.092;2022-09-09T13:50:26;8.40;;;2.47;;
29504;SDS011;16452;54.174;12.092;2022-09-09T13:52:56;6.15;;;2.97;;
29504;SDS011;16452;54.174;12.092;2022-09-09T13:55:24;7.05;;;2.72;;
29504;SDS011;16452;54.174;12.092;2022-09-09T14:00:30;7.35;;;2.63;;
29504;SDS011;16452;54.174;12.092;2022-09-09T14:02:59;12.00;;;2.63;;
29504;SDS011;16452;54.174;12.092;2022-09-09T14:05:27;4.93;;;2.50;;
29504;SDS011;16452;54.174;12.092;2022-09-09T14:07:52;5.72;;;2.15;;
29504;SDS011;16452;54.174;12.092;2022-09-09T14:10:18;5.97;;;2.38;;
29504;SDS011;16452;54.174;12.092;2022-09-09T14:12:44;4.03;;;2.00;;
29504;SDS011;16452;54.174;12.092;2022-09-09T14:15:11;6.10;;;2.00;;
29504;SDS011;16452;54.174;12.092;2022-09-09T14:17:37;6.88;;;2.00;;
29504;SDS011;16452;54.174;12.092;2022-09-09T14:20:04;3.58;;;1.73;;
29504;SDS011;16452;54.174;12.092;2022-09-09T14:22:32;8.90;;;2.25;;
29504;SDS011;16452;54.174;12.092;2022-09-09T14:24:58;6.20;;;1.60;;
29504;SDS011;16452;54.174;12.092;2022-09-09T14:27:24;6.35;;;2.50;;
29504;SDS011;16452;54.174;12.092;2022-09-09T14:29:51;5.55;;;2.15;;
29504;SDS011;16452;54.174;12.092;2022-09-09T14:32:17;15.23;;;2.65;;
29504;SDS011;16452;54.174;12.092;2022-09-09T14:34:43;7.78;;;2.50;;
29504;SDS011;16452;54.174;12.092;2022-09-09T14:37:09;6.55;;;3.00;;
29504;SDS011;16452;54.174;12.092;2022-09-09T14:39:35;5.88;;;3.17;;
29504;SDS011;16452;54.174;12.092;2022-09-09T14:42:01;8.27;;;3.20;;
29504;SDS011;16452;54.174;12.092;2022-09-09T14:44:27;8.55;;;3.78;;
29504;SDS011;16452;54.174;12.092;2022-09-09T14:46:53;8.23;;;3.58;;
29504;SDS011;16452;54.174;12.092;2022-09-09T14:49:19;7.38;;;2.70;;
29504;SDS011;16452;54.174;12.092;2022-09-09T14:51:45;4.22;;;2.28;;
29504;SDS011;16452;54.174;12.092;2022-09-09T14:54:11;5.45;;;2.30;;
29504;SDS011;16452;54.174;12.092;2022-09-09T14:56:37;6.20;;;1.80;;
29504;SDS011;16452;54.174;12.092;2022-09-09T14:59:03;4.45;;;1.27;;
29504;SDS011;16452;54.174;12.092;2022-09-09T15:01:29;2.60;;;1.00;;
29504;SDS011;16452;54.174;12.092;2022-09-09T15:03:57;1.58;;;0.90;;
29504;SDS011;16452;54.174;12.092;2022-09-09T15:06:29;3.47;;;0.90;;
29504;SDS011;16452;54.174;12.092;2022-09-09T15:08:58;2.50;;;0.80;;
29504;SDS011;16452;54.174;12.092;2022-09-09T15:11:25;2.55;;;1.00;;
29504;SDS011;16452;54.174;12.092;2022-09-09T15:13:55;4.90;;;1.88;;
29504;SDS011;16452;54.174;12.092;2022-09-09T15:16:22;2.60;;;1.20;;
29504;SDS011;16452;54.174;12.092;2022-09-09T15:18:51;3.40;;;1.00;;
29504;SDS011;16452;54.174;12.092;2022-09-09T15:21:20;2.90;;;1.02;;
29504;SDS011;16452;54.174;12.092;2022-09-09T15:23:48;3.65;;;1.02;;
29504;SDS011;16452;54.174;12.092;2022-09-09T15:26:15;7.55;;;3.88;;
29504;SDS011;16452;54.174;12.092;2022-09-09T15:28:42;2.72;;;1.10;;
29504;SDS011;16452;54.174;12.092;2022-09-09T15:31:11;3.65;;;1.20;;
29504;SDS011;16452;54.174;12.092;2022-09-09T15:33:39;4.18;;;1.30;;
29504;SDS011;16452;54.174;12.092;2022-09-09T15:36:13;3.25;;;1.17;;
29504;SDS011;16452;54.174;12.092;2022-09-09T15:38:44;4.15;;;1.02;;
29504;SDS011;16452;54.174;12.092;2022-09-09T15:41:11;1.75;;;0.88;;
29504;SDS011;16452;54.174;12.092;2022-09-09T15:43:38;4.90;;;1.48;;
29504;SDS011;16452;54.174;12.092;2022-09-09T15:48:42;4.60;;;1.38;;
29504;SDS011;16452;54.174;12.092;2022-09-09T15:51:09;5.10;;;1.50;;
29504;SDS011;16452;54.174;12.092;2022-09-09T15:53:39;6.57;;;1.80;;
29504;SDS011;16452;54.174;12.092;2022-09-09T15:56:05;3.42;;;1.45;;
29504;SDS011;16452;54.174;12.092;2022-09-09T15:58:31;6.28;;;1.70;;
29504;SDS011;16452;54.174;12.092;2022-09-09T16:01:04;3.20;;;1.48;;
29504;SDS011;16452;54.174;12.092;2022-09-09T16:03:35;5.72;;;1.30;;
29504;SDS011;16452;54.174;12.092;2022-09-09T16:06:10;4.97;;;1.50;;
29504;SDS011;16452;54.174;12.092;2022-09-09T16:08:40;3.95;;;1.42;;
29504;SDS011;16452;54.174;12.092;2022-09-09T16:11:10;4.60;;;1.77;;
29504;SDS011;16452;54.174;12.092;2022-09-09T16:13:42;5.63;;;1.75;;
29504;SDS011;16452;54.174;12.092;2022-09-09T16:16:09;2.80;;;1.40;;
29504;SDS011;16452;54.174;12.092;2022-09-09T16:18:41;4.75;;;1.73;;
29504;SDS011;16452;54.174;12.092;2022-09-09T16:21:20;5.50;;;1.90;;
29504;SDS011;16452;54.174;12.092;2022-09-09T16:23:50;3.22;;;1.50;;
29504;SDS011;16452;54.174;12.092;2022-09-09T16:26:18;4.55;;;2.30;;
29504;SDS011;16452;54.174;12.092;2022-09-09T16:28:45;6.88;;;2.53;;
29504;SDS011;16452;54.174;12.092;2022-09-09T16:31:16;5.70;;;2.72;;
29504;SDS011;16452;54.174;12.092;2022-09-09T16:33:44;6.75;;;3.00;;
29504;SDS011;16452;54.174;12.092;2022-09-09T16:36:15;5.85;;;3.42;;
29504;SDS011;16452;54.174;12.092;2022-09-09T16:38:52;6.35;;;2.35;;
29504;SDS011;16452;54.174;12.092;2022-09-09T16:41:20;7.25;;;3.40;;
29504;SDS011;16452;54.174;12.092;2022-09-09T16:43:46;9.32;;;3.15;;
29504;SDS011;16452;54.174;12.092;2022-09-09T16:46:13;7.72;;;3.13;;
29504;SDS011;16452;54.174;12.092;2022-09-09T16:48:42;10.98;;;5.30;;
29504;SDS011;16452;54.174;12.092;2022-09-09T16:51:14;8.70;;;3.83;;
29504;SDS011;16452;54.174;12.092;2022-09-09T16:53:50;13.50;;;4.40;;
29504;SDS011;16452;54.174;12.092;2022-09-09T16:56:22;10.02;;;3.78;;
29504;SDS011;16452;54.174;12.092;2022-09-09T16:58:57;8.38;;;4.38;;
29504;SDS011;16452;54.174;12.092;2022-09-09T17:01:27;8.98;;;4.00;;
29504;SDS011;16452;54.174;12.092;2022-09-09T17:03:57;7.47;;;3.05;;
29504;SDS011;16452;54.174;12.092;2022-09-09T17:06:32;13.05;;;3.72;;
29504;SDS011;16452;54.174;12.092;2022-09-09T17:09:00;11.98;;;3.10;;
29504;SDS011;16452;54.174;12.092;2022-09-09T17:11:32;14.68;;;4.03;;
29504;SDS011;16452;54.174;12.092;2022-09-09T17:13:58;13.07;;;3.88;;
29504;SDS011;16452;54.174;12.092;2022-09-09T17:16:25;12.70;;;3.55;;
29504;SDS011;16452;54.174;12.092;2022-09-09T17:18:54;18.67;;;5.60;;
29504;SDS011;16452;54.174;12.092;2022-09-09T17:21:21;9.05;;;2.90;;
29504;SDS011;16452;54.174;12.092;2022-09-09T17:23:50;11.80;;;2.72;;
29504;SDS011;16452;54.174;12.092;2022-09-09T17:26:18;7.03;;;2.55;;
29504;SDS011;16452;54.174;12.092;2022-09-09T17:28:46;11.85;;;2.72;;
29504;SDS011;16452;54.174;12.092;2022-09-09T17:31:13;16.13;;;3.97;;
29504;SDS011;16452;54.174;12.092;2022-09-09T17:33:42;11.80;;;4.15;;
29504;SDS011;16452;54.174;12.092;2022-09-09T17:38:42;11.98;;;2.58;;
29504;SDS011;16452;54.174;12.092;2022-09-09T17:43:37;6.38;;;2.08;;